createdAt,value
2023-04-27T00:01:15.876Z,100332.45
2023-04-27T00:03:43.668Z,100335.30
2023-04-27T00:06:11.916Z,100336.39
2023-04-27T00:08:39.736Z,100334.69
2023-04-27T00:11:07.394Z,100334.08
2023-04-27T00:13:35.064Z,100332.05
2023-04-27T00:16:04.003Z,100332.91
2023-04-27T00:18:32.710Z,100336.91
2023-04-27T00:21:00.498Z,100333.28
2023-04-27T00:23:28.456Z,100332.30
2023-04-27T00:25:56.248Z,100331.50
2023-04-27T00:28:23.922Z,100337.86
2023-04-27T00:30:54.420Z,100340.41
2023-04-27T00:33:22.186Z,100345.89
2023-04-27T00:35:49.893Z,100348.58
2023-04-27T00:38:17.639Z,100346.83
2023-04-27T00:40:45.425Z,100348.37
2023-04-27T00:43:13.158Z,100349.30
2023-04-27T00:45:45.891Z,100352.49
2023-04-27T00:48:13.576Z,100347.90
2023-04-27T00:50:41.609Z,100351.23
2023-04-27T00:53:09.457Z,100354.06
2023-04-27T00:55:37.130Z,100353.48
2023-04-27T00:58:11.270Z,100351.56
2023-04-27T01:00:40.319Z,100351.02
2023-04-27T01:03:08.801Z,100353.75
2023-04-27T01:05:37.638Z,100353.55
2023-04-27T01:08:05.568Z,100359.58
2023-04-27T01:10:33.298Z,100363.73
2023-04-27T01:13:01.309Z,100363.80
2023-04-27T01:15:29.123Z,100360.67
2023-04-27T01:18:01.939Z,100363.16
2023-04-27T01:20:33.180Z,100361.77
2023-04-27T01:23:00.927Z,100361.88
2023-04-27T01:25:28.736Z,100358.65
2023-04-27T01:27:56.525Z,100362.62
2023-04-27T01:30:24.111Z,100367.14
2023-04-27T01:32:51.886Z,100365.39
2023-04-27T01:35:19.728Z,100373.16
2023-04-27T01:37:47.437Z,100373.25
2023-04-27T01:40:15.516Z,100370.98
2023-04-27T01:42:43.424Z,100366.33
2023-04-27T01:45:11.773Z,100365.55
2023-04-27T01:47:39.827Z,100369.72
2023-04-27T01:50:07.784Z,100368.71
2023-04-27T01:56:54.552Z,100379.53
2023-04-27T01:59:22.302Z,100383.65
2023-04-27T02:01:50.016Z,100381.67
2023-04-27T02:04:18.050Z,100381.25
2023-04-27T02:06:45.802Z,100378.41
2023-04-27T02:09:14.220Z,100378.64
2023-04-27T02:11:42.111Z,100380.60
2023-04-27T02:18:12.116Z,100379.88
2023-04-27T02:20:40.142Z,100377.02
2023-04-27T02:23:08.023Z,100379.48
2023-04-27T02:25:39.104Z,100382.00
2023-04-27T02:28:06.775Z,100381.85
2023-04-27T02:30:35.140Z,100380.98
2023-04-27T02:33:02.857Z,100381.91
2023-04-27T02:35:32.616Z,100375.99
2023-04-27T02:38:34.861Z,100373.65
2023-04-27T02:41:02.628Z,100378.15
2023-04-27T02:43:31.880Z,100382.64
2023-04-27T02:46:03.813Z,100380.47
2023-04-27T02:48:31.759Z,100382.77
2023-04-27T02:50:59.405Z,100381.91
2023-04-27T02:53:27.242Z,100385.23
2023-04-27T02:55:54.940Z,100388.55
2023-04-27T02:58:22.729Z,100388.05
2023-04-27T03:00:57.373Z,100389.48
2023-04-27T03:03:25.364Z,100390.39
2023-04-27T03:05:54.452Z,100387.28
2023-04-27T03:08:22.087Z,100388.08
2023-04-27T03:10:49.802Z,100392.11
2023-04-27T03:13:17.457Z,100396.73
2023-04-27T03:15:45.210Z,100402.59
2023-04-27T03:18:12.814Z,100403.80
2023-04-27T03:20:41.227Z,100403.42
2023-04-27T03:23:08.925Z,100405.16
2023-04-27T03:25:36.641Z,100404.27
2023-04-27T03:28:04.603Z,100403.42
2023-04-27T03:30:32.458Z,100402.41
2023-04-27T03:33:00.240Z,100399.72
2023-04-27T03:35:28.096Z,100403.16
2023-04-27T03:37:55.971Z,100404.98
2023-04-27T03:40:23.750Z,100405.59
2023-04-27T03:42:51.598Z,100403.17
2023-04-27T03:45:22.452Z,100406.20
2023-04-27T03:47:50.674Z,100407.88
2023-04-27T03:51:15.273Z,100406.36
2023-04-27T03:53:43.016Z,100407.09
2023-04-27T03:56:10.772Z,100411.80
2023-04-27T03:58:40.906Z,100414.76
2023-04-27T04:01:10.462Z,100419.44
2023-04-27T04:03:38.251Z,100421.48
2023-04-27T04:06:08.963Z,100423.59
2023-04-27T04:08:37.405Z,100425.23
2023-04-27T04:11:05.438Z,100428.82
2023-04-27T04:13:33.115Z,100432.17
2023-04-27T04:16:05.721Z,100434.63
2023-04-27T04:18:34.345Z,100435.77
2023-04-27T04:21:03.014Z,100442.92
2023-04-27T04:23:30.842Z,100447.40
2023-04-27T04:25:59.138Z,100445.98
2023-04-27T04:28:27.568Z,100448.67
2023-04-27T04:30:56.089Z,100448.67
2023-04-27T04:33:24.303Z,100453.62
2023-04-27T04:35:52.038Z,100452.27
2023-04-27T04:38:19.848Z,100445.34
2023-04-27T04:40:47.637Z,100447.29
2023-04-27T04:43:15.373Z,100446.23
2023-04-27T04:45:43.707Z,100447.92
2023-04-27T04:48:11.584Z,100450.48
2023-04-27T04:50:39.414Z,100456.55
2023-04-27T04:53:07.512Z,100453.65
2023-04-27T04:55:35.136Z,100453.20
2023-04-27T04:58:03.306Z,100455.17
2023-04-27T05:00:31.106Z,100453.27
2023-04-27T05:02:58.926Z,100457.04
2023-04-27T05:05:26.825Z,100461.55
2023-04-27T05:07:54.494Z,100464.14
2023-04-27T05:10:22.215Z,100463.12
2023-04-27T05:12:49.846Z,100467.17
2023-04-27T05:15:18.153Z,100469.33
2023-04-27T05:17:46.397Z,100471.36
2023-04-27T05:20:14.233Z,100469.58
2023-04-27T05:22:42.137Z,100468.02
2023-04-27T05:25:10.063Z,100470.28
2023-04-27T05:27:37.887Z,100469.30
2023-04-27T05:30:06.209Z,100473.22
2023-04-27T05:32:36.228Z,100478.75
2023-04-27T05:35:05.576Z,100482.39
2023-04-27T05:37:33.646Z,100479.17
2023-04-27T05:40:01.705Z,100480.27
2023-04-27T05:42:29.488Z,100484.67
2023-04-27T05:44:57.235Z,100493.27
2023-04-27T05:47:25.038Z,100496.01
2023-04-27T05:49:53.267Z,100497.75
2023-04-27T05:52:22.037Z,100499.73
2023-04-27T05:54:50.966Z,100502.79
2023-04-27T05:57:18.707Z,100495.88
2023-04-27T06:00:36.870Z,100502.20
2023-04-27T06:03:04.751Z,100499.45
2023-04-27T06:05:34.335Z,100506.22
2023-04-27T06:08:02.067Z,100505.50
2023-04-27T06:10:29.908Z,100504.30
2023-04-27T06:12:57.617Z,100506.16
2023-04-27T06:15:26.020Z,100505.96
2023-04-27T06:17:53.750Z,100508.24
2023-04-27T06:20:21.643Z,100511.02
2023-04-27T06:22:49.404Z,100507.48
2023-04-27T06:25:18.652Z,100509.81
2023-04-27T06:27:46.487Z,100511.52
2023-04-27T06:30:14.332Z,100512.75
2023-04-27T06:32:42.160Z,100509.73
2023-04-27T06:35:10.905Z,100509.18
2023-04-27T06:37:39.108Z,100511.30
2023-04-27T06:40:08.272Z,100514.45
2023-04-27T06:42:36.512Z,100514.77
2023-04-27T06:45:05.619Z,100516.77
2023-04-27T06:47:33.482Z,100517.98
2023-04-27T06:50:01.116Z,100520.46
2023-04-27T06:52:54.250Z,100522.26
2023-04-27T06:55:22.026Z,100519.73
2023-04-27T06:57:49.757Z,100521.09
2023-04-27T07:00:17.833Z,100524.05
2023-04-27T07:02:45.565Z,100525.13
2023-04-27T07:05:13.311Z,100528.04
2023-04-27T07:07:41.005Z,100526.80
2023-04-27T07:10:09.286Z,100529.43
2023-04-27T07:12:38.039Z,100537.09
2023-04-27T07:15:06.663Z,100537.00
2023-04-27T07:17:34.313Z,100540.23
2023-04-27T07:20:04.104Z,100536.17
2023-04-27T07:22:38.422Z,100536.12
2023-04-27T07:25:06.900Z,100533.41
2023-04-27T07:27:35.793Z,100538.58
2023-04-27T07:30:04.188Z,100533.41
2023-04-27T07:32:32.234Z,100532.48
2023-04-27T07:35:00.069Z,100533.17
2023-04-27T07:37:28.878Z,100537.31
2023-04-27T07:39:56.645Z,100538.52
2023-04-27T07:42:25.210Z,100541.61
2023-04-27T07:44:54.507Z,100542.27
2023-04-27T07:47:22.273Z,100538.86
2023-04-27T07:49:50.207Z,100535.14
2023-04-27T07:52:17.973Z,100539.23
2023-04-27T07:54:45.571Z,100540.10
2023-04-27T07:57:13.236Z,100542.02
2023-04-27T07:59:40.991Z,100542.63
2023-04-27T08:02:19.140Z,100550.17
2023-04-27T08:04:49.972Z,100549.28
2023-04-27T08:07:18.475Z,100552.66
2023-04-27T08:09:47.168Z,100558.39
2023-04-27T08:12:15.035Z,100563.85
2023-04-27T08:14:42.757Z,100564.46
2023-04-27T08:17:11.384Z,100561.35
2023-04-27T08:19:39.149Z,100559.23
2023-04-27T08:22:08.585Z,100555.83
2023-04-27T08:24:37.478Z,100558.28
2023-04-27T08:27:08.645Z,100559.14
2023-04-27T08:30:03.279Z,100554.52
2023-04-27T08:32:31.426Z,100550.14
2023-04-27T08:35:14.794Z,100549.79
2023-04-27T08:37:42.554Z,100552.48
2023-04-27T08:40:10.914Z,100548.05
2023-04-27T08:42:42.037Z,100542.30
2023-04-27T08:45:10.012Z,100544.59
2023-04-27T08:47:48.624Z,100540.91
2023-04-27T08:50:17.024Z,100538.59
2023-04-27T08:52:52.572Z,100539.89
2023-04-27T08:55:20.476Z,100540.15
2023-04-27T08:57:58.452Z,100541.75
2023-04-27T09:00:27.077Z,100545.21
2023-04-27T09:02:55.038Z,100546.73
2023-04-27T09:05:23.811Z,100551.76
2023-04-27T09:08:08.074Z,100547.73
2023-04-27T09:10:49.296Z,100547.77
2023-04-27T09:13:17.392Z,100544.25
2023-04-27T09:15:50.699Z,100545.01
2023-04-27T09:18:21.320Z,100544.77
2023-04-27T09:20:52.982Z,100546.97
2023-04-27T09:36:23.326Z,100545.17
2023-04-27T09:38:52.454Z,100542.73
2023-04-27T09:41:20.647Z,100543.90
2023-04-27T09:43:50.819Z,100547.88
2023-04-27T09:46:19.785Z,100541.50
2023-04-27T09:48:51.044Z,100544.48
2023-04-27T09:51:23.167Z,100544.59
2023-04-27T09:53:58.686Z,100546.86
2023-04-27T09:56:41.768Z,100553.63
2023-04-27T09:59:24.647Z,100549.07
2023-04-27T10:01:56.797Z,100552.50
2023-04-27T10:04:30.683Z,100550.08
2023-04-27T10:07:08.520Z,100547.86
2023-04-27T10:09:40.668Z,100549.23
2023-04-27T10:12:41.999Z,100549.22
2023-04-27T10:15:17.860Z,100550.13
2023-04-27T10:17:50.442Z,100549.42
2023-04-27T10:20:32.606Z,100548.34
2023-04-27T10:23:00.931Z,100552.27
2023-04-27T10:25:37.079Z,100552.84
2023-04-27T10:28:05.110Z,100554.95
2023-04-27T10:30:43.968Z,100552.10
2023-04-27T10:33:15.961Z,100551.84
2023-04-27T10:35:54.325Z,100549.76
2023-04-27T10:38:30.921Z,100551.55
2023-04-27T10:41:07.515Z,100549.23
2023-04-27T10:44:38.258Z,100546.91
2023-04-27T10:47:22.146Z,100547.54
2023-04-27T10:49:54.399Z,100551.08
2023-04-27T10:52:22.100Z,100551.98
2023-04-27T10:54:49.804Z,100545.76
2023-04-27T10:57:18.077Z,100547.81
2023-04-27T10:59:54.682Z,100546.67
2023-04-27T11:02:27.991Z,100553.89
2023-04-27T11:04:56.739Z,100556.55
2023-04-27T11:07:29.075Z,100557.62
2023-04-27T11:09:57.130Z,100560.58
2023-04-27T11:12:28.380Z,100563.10
2023-04-27T11:14:59.555Z,100564.55
2023-04-27T11:17:31.098Z,100569.77
2023-04-27T11:19:58.929Z,100572.07
2023-04-27T11:22:51.314Z,100574.89
2023-04-27T11:25:27.820Z,100583.48
2023-04-27T11:27:56.033Z,100579.41
2023-04-27T11:30:24.341Z,100577.13
2023-04-27T11:32:53.831Z,100579.55
2023-04-27T11:35:32.666Z,100578.45
2023-04-27T11:38:00.473Z,100577.18
2023-04-27T11:40:29.507Z,100577.15
2023-04-27T11:42:59.635Z,100569.76
2023-04-27T11:45:30.150Z,100575.45
2023-04-27T11:48:01.028Z,100574.89
2023-04-27T11:50:28.865Z,100568.80
2023-04-27T11:53:01.232Z,100569.03
2023-04-27T11:55:29.517Z,100570.42
2023-04-27T11:57:59.394Z,100569.08
2023-04-27T12:00:27.206Z,100569.38
2023-04-27T12:02:55.213Z,100572.69
2023-04-27T12:05:23.329Z,100567.15
2023-04-27T12:07:52.357Z,100563.02
2023-04-27T12:10:20.170Z,100566.70
2023-04-27T12:12:47.911Z,100561.23
2023-04-27T12:15:15.601Z,100559.88
2023-04-27T12:17:43.292Z,100558.89
2023-04-27T12:20:12.016Z,100559.48
2023-04-27T12:22:40.810Z,100559.80
2023-04-27T12:25:08.601Z,100560.22
2023-04-27T12:27:36.326Z,100565.40
2023-04-27T12:30:04.949Z,100566.79
2023-04-27T12:32:32.628Z,100571.03
2023-04-27T12:35:00.318Z,100573.23
2023-04-27T12:37:27.974Z,100574.98
2023-04-27T12:39:55.727Z,100581.05
2023-04-27T12:42:24.433Z,100577.29
2023-04-27T12:44:52.952Z,100580.88
2023-04-27T12:47:45.980Z,100586.02
2023-04-27T12:50:10.173Z,100584.08
2023-04-27T12:57:06.353Z,100585.61
2023-04-27T12:59:34.410Z,100585.64
2023-04-27T13:02:02.895Z,100590.45
2023-04-27T13:04:31.673Z,100590.11
2023-04-27T13:07:03.293Z,100587.02
2023-04-27T13:09:31.098Z,100587.72
2023-04-27T13:12:01.401Z,100588.92
2023-04-27T13:14:30.417Z,100588.68
2023-04-27T13:16:58.146Z,100592.20
2023-04-27T13:19:26.774Z,100590.91
2023-04-27T13:21:54.512Z,100589.48
2023-04-27T13:24:22.806Z,100592.33
2023-04-27T13:26:50.535Z,100592.73
2023-04-27T13:29:18.176Z,100590.48
2023-04-27T13:31:46.191Z,100590.93
2023-04-27T13:34:18.855Z,100594.62
2023-04-27T13:36:48.896Z,100588.23
2023-04-27T13:39:17.297Z,100587.98
2023-04-27T13:42:36.284Z,100586.99
2023-04-27T13:45:04.930Z,100592.92
2023-04-27T13:47:37.021Z,100596.67
2023-04-27T13:50:10.742Z,100599.66
2023-04-27T13:52:39.578Z,100602.64
2023-04-27T13:55:09.465Z,100603.77
2023-04-27T13:57:37.991Z,100605.15
2023-04-27T14:00:11.488Z,100607.65
2023-04-27T14:03:05.730Z,100608.33
2023-04-27T14:05:33.726Z,100610.23
2023-04-27T14:08:01.489Z,100611.39
2023-04-27T14:10:29.584Z,100612.48
2023-04-27T14:12:57.510Z,100614.69
2023-04-27T14:15:25.362Z,100609.86
2023-04-27T14:17:53.147Z,100607.28
2023-04-27T14:20:21.221Z,100607.76
2023-04-27T14:23:40.454Z,100605.84
2023-04-27T14:26:09.184Z,100600.73
2023-04-27T14:28:36.940Z,100604.63
2023-04-27T14:31:04.649Z,100603.07
2023-04-27T14:33:32.597Z,100603.14
2023-04-27T14:36:00.811Z,100605.80
2023-04-27T14:38:28.556Z,100605.19
2023-04-27T14:40:56.387Z,100608.45
2023-04-27T14:43:24.090Z,100610.60
2023-04-27T14:45:57.137Z,100613.44
2023-04-27T14:48:29.899Z,100614.58
2023-04-27T14:52:02.539Z,100616.55
2023-04-27T14:54:30.453Z,100623.17
2023-04-27T14:56:58.956Z,100623.23
2023-04-27T14:59:26.867Z,100620.29
2023-04-27T15:01:54.764Z,100620.92
2023-04-27T15:04:22.905Z,100626.45
2023-04-27T15:06:51.019Z,100630.77
2023-04-27T15:09:18.976Z,100625.46
2023-04-27T15:11:47.097Z,100627.65
2023-04-27T15:14:14.888Z,100627.29
2023-04-27T15:16:42.768Z,100628.33
2023-04-27T15:19:10.533Z,100632.45
2023-04-27T15:22:35.433Z,100632.91
2023-04-27T15:25:03.406Z,100628.52
2023-04-27T15:27:31.195Z,100629.13
2023-04-27T15:30:07.489Z,100631.41
2023-04-27T15:32:35.180Z,100630.31
2023-04-27T15:35:04.411Z,100632.38
2023-04-27T15:37:35.860Z,100633.55
2023-04-27T15:40:04.368Z,100637.48
2023-04-27T15:42:32.194Z,100633.32
2023-04-27T15:45:00.755Z,100637.53
2023-04-27T15:47:28.424Z,100635.86
2023-04-27T15:49:57.765Z,100638.39
2023-04-27T15:52:27.202Z,100637.45
2023-04-27T15:54:55.445Z,100641.03
2023-04-27T15:57:23.090Z,100639.94
2023-04-27T15:59:50.766Z,100640.45
2023-04-27T16:02:18.682Z,100642.17
2023-04-27T16:04:46.648Z,100646.26
2023-04-27T16:07:14.523Z,100650.70
2023-04-27T16:09:42.395Z,100649.90
2023-04-27T16:12:10.258Z,100650.20
2023-04-27T16:14:38.365Z,100654.48
2023-04-27T16:17:06.862Z,100654.33
2023-04-27T16:19:35.907Z,100658.09
2023-04-27T16:22:04.310Z,100658.17
2023-04-27T16:24:32.472Z,100656.92
2023-04-27T16:27:00.189Z,100660.02
2023-04-27T16:33:29.582Z,100661.70
2023-04-27T16:40:10.942Z,100661.73
2023-04-27T16:42:38.716Z,100663.79
2023-04-27T16:45:08.540Z,100665.17
2023-04-27T16:47:38.084Z,100668.38
2023-04-27T16:50:06.465Z,100671.04
2023-04-27T16:52:36.508Z,100668.63
2023-04-27T16:55:04.677Z,100671.58
2023-04-27T16:57:32.854Z,100671.05
2023-04-27T17:00:01.814Z,100668.82
2023-04-27T17:02:29.998Z,100667.80
2023-04-27T17:04:59.507Z,100673.67
2023-04-27T17:07:33.061Z,100676.02
2023-04-27T17:10:01.179Z,100678.73
2023-04-27T17:12:28.907Z,100680.59
2023-04-27T17:14:56.799Z,100681.64
2023-04-27T17:17:24.619Z,100680.30
2023-04-27T17:19:52.371Z,100682.25
2023-04-27T17:22:20.457Z,100688.70
2023-04-27T17:24:48.169Z,100686.70
2023-04-27T17:27:16.265Z,100689.69
2023-04-27T17:29:43.915Z,100689.31
2023-04-27T17:32:11.698Z,100689.05
2023-04-27T17:34:41.052Z,100700.10
2023-04-27T17:37:11.098Z,100690.98
2023-04-27T17:39:38.767Z,100692.48
2023-04-27T17:42:12.262Z,100687.67
2023-04-27T17:44:42.100Z,100683.58
2023-04-27T17:47:09.888Z,100680.86
2023-04-27T17:49:38.030Z,100683.88
2023-04-27T17:52:05.923Z,100679.77
2023-04-27T17:54:33.696Z,100684.31
2023-04-27T17:57:02.058Z,100684.14
2023-04-27T17:59:29.910Z,100688.29
2023-04-27T18:01:57.836Z,100684.91
2023-04-27T18:04:26.929Z,100689.18
2023-04-27T18:06:54.682Z,100690.71
2023-04-27T18:09:23.632Z,100694.92
2023-04-27T18:11:51.424Z,100697.85
2023-04-27T18:14:19.178Z,100708.30
2023-04-27T18:16:47.093Z,100711.66
2023-04-27T18:19:15.098Z,100710.02
2023-04-27T18:26:00.140Z,100718.32
2023-04-27T18:28:28.099Z,100721.20
2023-04-27T18:30:56.029Z,100721.68
2023-04-27T18:33:50.846Z,100724.48
2023-04-27T18:36:19.823Z,100722.43
2023-04-27T18:38:51.006Z,100723.20
2023-04-27T18:45:31.563Z,100727.02
2023-04-27T18:47:59.387Z,100724.53
2023-04-27T18:50:27.199Z,100724.91
2023-04-27T18:52:54.927Z,100727.17
2023-04-27T18:55:22.764Z,100727.48
2023-04-27T18:57:50.650Z,100729.87
2023-04-27T19:03:10.993Z,100728.36
2023-04-27T19:05:42.871Z,100727.92
2023-04-27T19:08:11.603Z,100725.34
2023-04-27T19:10:41.591Z,100728.49
2023-04-27T19:13:09.547Z,100726.06
2023-04-27T19:15:37.606Z,100727.15
2023-04-27T19:18:10.623Z,100725.92
2023-04-27T19:20:39.792Z,100727.34
2023-04-27T19:23:09.772Z,100728.91
2023-04-27T19:25:37.996Z,100728.91
2023-04-27T19:30:34.067Z,100727.89
2023-04-27T19:33:04.991Z,100729.09
2023-04-27T19:35:32.731Z,100729.20
2023-04-27T19:38:00.976Z,100727.95
2023-04-27T19:40:28.712Z,100730.44
2023-04-27T19:42:57.100Z,100729.55
2023-04-27T19:45:24.939Z,100727.50
2023-04-27T19:47:54.239Z,100729.75
2023-04-27T19:50:22.455Z,100730.88
2023-04-27T19:52:50.166Z,100732.34
2023-04-27T19:55:18.133Z,100729.91
2023-04-27T19:57:46.106Z,100727.14
2023-04-27T20:00:14.229Z,100729.19
2023-04-27T20:02:42.485Z,100729.11
2023-04-27T20:05:10.773Z,100732.93
2023-04-27T20:07:39.145Z,100730.94
2023-04-27T20:10:07.341Z,100731.89
2023-04-27T20:15:42.521Z,100734.78
2023-04-27T20:19:28.419Z,100738.11
2023-04-27T20:21:59.550Z,100737.27
2023-04-27T20:24:28.502Z,100741.14
2023-04-27T20:26:55.086Z,100742.50
2023-04-27T20:29:21.629Z,100741.10
2023-04-27T20:31:48.299Z,100742.55
2023-04-27T20:34:15.268Z,100741.54
2023-04-27T20:36:43.683Z,100745.95
2023-04-27T20:39:11.357Z,100744.59
2023-04-27T20:41:41.130Z,100749.13
2023-04-27T20:44:08.876Z,100748.29
2023-04-27T20:46:35.981Z,100751.02
2023-04-27T20:49:05.258Z,100750.04
2023-04-27T20:55:40.328Z,100753.90
2023-04-27T20:58:07.118Z,100752.16
2023-04-27T21:00:33.555Z,100752.63
2023-04-27T21:03:00.388Z,100754.35
2023-04-27T21:05:26.782Z,100751.98
2023-04-27T21:07:53.429Z,100755.30
2023-04-27T21:10:19.702Z,100754.83
2023-04-27T21:12:46.012Z,100756.63
2023-04-27T21:15:12.393Z,100758.55
2023-04-27T21:17:38.871Z,100763.45
2023-04-27T21:24:25.678Z,100764.91
2023-04-27T21:26:52.198Z,100766.09
2023-04-27T21:29:21.048Z,100764.29
2023-04-27T21:31:47.321Z,100765.63
2023-04-27T21:34:14.029Z,100766.16
2023-04-27T21:36:40.524Z,100767.46
2023-04-27T21:39:06.877Z,100769.81
2023-04-27T21:41:38.540Z,100770.74
2023-04-27T21:44:04.989Z,100771.28
2023-04-27T21:46:31.331Z,100776.55
2023-04-27T21:48:57.689Z,100778.23
2023-04-27T21:51:23.981Z,100780.66
2023-04-27T21:53:50.343Z,100783.45
2023-04-27T21:56:16.636Z,100786.95
2023-04-27T21:58:43.893Z,100789.29
2023-04-27T22:01:11.970Z,100790.71
2023-04-27T22:03:38.548Z,100792.96
2023-04-27T22:06:05.590Z,100790.95
2023-04-27T22:12:32.931Z,100792.23
2023-04-27T22:14:59.365Z,100794.80
2023-04-27T22:17:25.985Z,100793.05
2023-04-27T22:19:55.030Z,100792.94
2023-04-27T22:22:21.353Z,100788.98
2023-04-27T22:24:47.974Z,100794.75
2023-04-27T22:27:14.318Z,100795.32
2023-04-27T22:29:40.703Z,100797.33
2023-04-27T22:32:07.059Z,100797.05
2023-04-27T22:34:33.555Z,100794.10
2023-04-27T22:37:00.030Z,100794.33
2023-04-27T22:39:26.357Z,100794.98
2023-04-27T22:41:52.614Z,100796.31
2023-04-27T22:45:22.396Z,100794.32
2023-04-27T22:47:48.828Z,100793.11
2023-04-27T22:50:15.724Z,100788.61
2023-04-27T22:52:42.575Z,100792.33
2023-04-27T22:55:12.134Z,100795.05
2023-04-27T22:57:39.411Z,100796.73
2023-04-27T23:04:10.483Z,100800.55
2023-04-27T23:06:37.612Z,100798.98
2023-04-27T23:09:04.880Z,100802.20
2023-04-27T23:11:31.245Z,100798.30
2023-04-27T23:13:57.604Z,100800.17
2023-04-27T23:16:25.089Z,100803.40
2023-04-27T23:18:52.186Z,100802.42
2023-04-27T23:21:18.459Z,100800.00
2023-04-27T23:23:45.963Z,100799.10
2023-04-27T23:26:15.790Z,100800.83
2023-04-27T23:28:42.651Z,100797.62
2023-04-27T23:31:09.613Z,100795.84
2023-04-27T23:33:36.212Z,100795.43
2023-04-27T23:40:06.157Z,100793.60
2023-04-27T23:42:32.623Z,100800.77
2023-04-27T23:49:19.699Z,100801.03
2023-04-27T23:51:46.394Z,100800.20
2023-04-27T23:54:12.627Z,100804.53
